首页
METAR-TAF:

METAR-TAF

机场 :

米科诺斯岛, 希腊

纬度: 37-26-09N, 经度: 025-20-45E, 海拔: 123米

当前天气观测

该预报发布于6小时和0分钟前的17:50 UTC
静风
温度 14°C
湿度 67%
气压 1013 hPa
能见度10公里或以上
少量云层高于1200英尺

METAR: LGMK 091750Z 00000KT 9999 FEW012 14/08 Q1013

时间: 01:50 (23:50 UTC)

预报

该预报发布于50分钟前的23:00 UTC
预报有效从10日的 00点(UTC)到 10日的 09点(UTC)
风速7节,风向南转南东
能见度10公里或以上
少量云层高于1000英尺
散云层高于2000英尺
几率 30% :
短暂存在
从 10日的 00点(UTC)到 10日的 06点(UTC)
能見度: 5000
散云层高于800英尺
多云层高于1800英尺
多云层高于3500英尺
成为
从 10日的 02点(UTC)到 10日的 04点(UTC)
风速17节,风向

TAF: LGMK 092300Z 1000/1009 16007KT 9999 FEW010 SCT020 PROB30 TEMPO 1000/1006 5000 RA SCT008 BKN018 BKN035 BECMG 1002/1004 17017KT

超过4000个机场的气象观测和天气预报(METAR&TAF报告)。

可查询的气象台以黄色和红色小点在地图上表示。

将鼠标移到小点上方,可查看气象台名称。

然后点击查看天气观测和预报。

如需切换地图:点击带黑十字的绿色按钮放大地图;点击带横线的绿色按钮缩小地图;或者点击绿色箭头查看邻近地区的地图。


METAR-TAF: